sensor_id;sensor_type;location;lat;lon;timestamp;pressure;altitude;pressure_sealevel;temperature;humidity
73024;BME280;61199;47.526;8.538;2023-03-14T00:00:12;95255.53;;;10.54;81.64
73024;BME280;61199;47.526;8.538;2023-03-14T00:02:39;95241.59;;;10.30;83.75
73024;BME280;61199;47.526;8.538;2023-03-14T00:05:07;95237.34;;;10.21;83.73
73024;BME280;61199;47.526;8.538;2023-03-14T00:07:36;95238.09;;;9.97;84.60
73024;BME280;61199;47.526;8.538;2023-03-14T00:10:04;95227.50;;;10.07;85.40
73024;BME280;61199;47.526;8.538;2023-03-14T00:12:31;95221.47;;;10.06;86.29
73024;BME280;61199;47.526;8.538;2023-03-14T00:14:58;95218.47;;;10.01;86.90
73024;BME280;61199;47.526;8.538;2023-03-14T00:17:27;95200.03;;;10.11;87.21
73024;BME280;61199;47.526;8.538;2023-03-14T00:19:53;95207.41;;;10.07;86.82
73024;BME280;61199;47.526;8.538;2023-03-14T00:22:20;95199.53;;;10.07;86.66
73024;BME280;61199;47.526;8.538;2023-03-14T00:24:47;95204.88;;;9.98;86.53
73024;BME280;61199;47.526;8.538;2023-03-14T00:27:14;95200.31;;;9.92;87.19
73024;BME280;61199;47.526;8.538;2023-03-14T00:29:42;95193.25;;;9.92;87.70
73024;BME280;61199;47.526;8.538;2023-03-14T00:32:08;95179.56;;;9.98;87.63
73024;BME280;61199;47.526;8.538;2023-03-14T00:34:35;95173.81;;;9.95;87.90
73024;BME280;61199;47.526;8.538;2023-03-14T00:37:01;95172.53;;;9.91;88.54
73024;BME280;61199;47.526;8.538;2023-03-14T00:39:27;95179.22;;;9.93;88.02
73024;BME280;61199;47.526;8.538;2023-03-14T00:41:54;95169.72;;;9.92;88.00
73024;BME280;61199;47.526;8.538;2023-03-14T00:44:20;95178.06;;;9.96;86.31
73024;BME280;61199;47.526;8.538;2023-03-14T00:46:47;95180.22;;;10.00;86.96
73024;BME280;61199;47.526;8.538;2023-03-14T00:49:14;95168.94;;;10.00;85.22
73024;BME280;61199;47.526;8.538;2023-03-14T00:51:41;95184.13;;;9.88;82.94
73024;BME280;61199;47.526;8.538;2023-03-14T00:54:07;95187.38;;;9.82;83.17
73024;BME280;61199;47.526;8.538;2023-03-14T00:56:34;95196.16;;;9.73;82.10
73024;BME280;61199;47.526;8.538;2023-03-14T00:59:00;95213.97;;;9.70;81.72
73024;BME280;61199;47.526;8.538;2023-03-14T01:01:26;95199.59;;;9.66;81.95
73024;BME280;61199;47.526;8.538;2023-03-14T01:03:54;95206.28;;;9.60;81.11
73024;BME280;61199;47.526;8.538;2023-03-14T01:06:26;95207.91;;;9.61;80.35
73024;BME280;61199;47.526;8.538;2023-03-14T01:08:53;95211.16;;;9.63;79.77
73024;BME280;61199;47.526;8.538;2023-03-14T01:11:24;95217.06;;;9.65;79.24
73024;BME280;61199;47.526;8.538;2023-03-14T01:13:52;95215.44;;;9.72;78.51
73024;BME280;61199;47.526;8.538;2023-03-14T01:16:20;95220.72;;;9.80;78.32
73024;BME280;61199;47.526;8.538;2023-03-14T01:18:47;95216.56;;;9.70;77.61
73024;BME280;61199;47.526;8.538;2023-03-14T01:21:23;95224.41;;;9.70;78.04
73024;BME280;61199;47.526;8.538;2023-03-14T01:23:50;95224.59;;;9.68;77.96
73024;BME280;61199;47.526;8.538;2023-03-14T01:26:20;95216.91;;;9.67;78.22
73024;BME280;61199;47.526;8.538;2023-03-14T01:28:48;95205.47;;;9.68;76.63
73024;BME280;61199;47.526;8.538;2023-03-14T01:31:16;95204.31;;;9.62;75.88
73024;BME280;61199;47.526;8.538;2023-03-14T01:33:43;95188.94;;;9.59;76.37
73024;BME280;61199;47.526;8.538;2023-03-14T01:36:10;95184.41;;;9.69;76.28
73024;BME280;61199;47.526;8.538;2023-03-14T01:38:38;95169.69;;;9.60;74.85
73024;BME280;61199;47.526;8.538;2023-03-14T01:41:07;95163.44;;;9.53;75.18
73024;BME280;61199;47.526;8.538;2023-03-14T01:43:33;95165.22;;;9.53;74.93
73024;BME280;61199;47.526;8.538;2023-03-14T01:49:11;95156.59;;;9.60;74.97
73024;BME280;61199;47.526;8.538;2023-03-14T01:51:55;95158.38;;;9.60;74.38
73024;BME280;61199;47.526;8.538;2023-03-14T01:54:43;95137.31;;;9.53;74.07
73024;BME280;61199;47.526;8.538;2023-03-14T01:57:23;95131.44;;;9.59;74.56
73024;BME280;61199;47.526;8.538;2023-03-14T01:59:58;95128.84;;;9.59;75.17
73024;BME280;61199;47.526;8.538;2023-03-14T02:02:26;95127.84;;;9.60;75.11
73024;BME280;61199;47.526;8.538;2023-03-14T02:04:54;95131.13;;;9.62;74.74
73024;BME280;61199;47.526;8.538;2023-03-14T02:07:26;95142.88;;;9.66;75.18
73024;BME280;61199;47.526;8.538;2023-03-14T02:09:58;95142.09;;;9.74;75.18
73024;BME280;61199;47.526;8.538;2023-03-14T02:12:25;95132.81;;;9.95;74.46
73024;BME280;61199;47.526;8.538;2023-03-14T02:14:52;95130.53;;;10.08;73.55
73024;BME280;61199;47.526;8.538;2023-03-14T02:17:19;95129.22;;;10.12;73.96
73024;BME280;61199;47.526;8.538;2023-03-14T02:22:24;95121.34;;;9.88;73.55
73024;BME280;61199;47.526;8.538;2023-03-14T02:25:06;95108.28;;;9.88;74.26
73024;BME280;61199;47.526;8.538;2023-03-14T02:27:34;95105.28;;;9.67;74.46
73024;BME280;61199;47.526;8.538;2023-03-14T02:32:31;95097.94;;;9.63;74.67
73024;BME280;61199;47.526;8.538;2023-03-14T02:35:06;95108.69;;;9.52;75.23
73024;BME280;61199;47.526;8.538;2023-03-14T02:38:00;95107.25;;;9.49;74.91
73024;BME280;61199;47.526;8.538;2023-03-14T02:40:29;95106.75;;;9.46;74.97
73024;BME280;61199;47.526;8.538;2023-03-14T02:42:56;95093.50;;;9.31;75.13
73024;BME280;61199;47.526;8.538;2023-03-14T02:45:32;95094.13;;;9.33;74.31
73024;BME280;61199;47.526;8.538;2023-03-14T02:48:04;95087.94;;;9.34;74.91
73024;BME280;61199;47.526;8.538;2023-03-14T02:50:33;95086.13;;;9.27;75.26
73024;BME280;61199;47.526;8.538;2023-03-14T02:53:00;95091.34;;;9.27;75.64
73024;BME280;61199;47.526;8.538;2023-03-14T02:55:27;95074.81;;;9.18;75.76
73024;BME280;61199;47.526;8.538;2023-03-14T02:57:53;95067.16;;;9.25;75.36
73024;BME280;61199;47.526;8.538;2023-03-14T03:00:20;95066.03;;;9.27;75.44
73024;BME280;61199;47.526;8.538;2023-03-14T03:02:46;95053.13;;;9.34;75.06
73024;BME280;61199;47.526;8.538;2023-03-14T03:05:13;95065.69;;;9.30;74.71
73024;BME280;61199;47.526;8.538;2023-03-14T03:07:39;95065.38;;;9.25;74.27
73024;BME280;61199;47.526;8.538;2023-03-14T03:10:06;95061.44;;;9.29;74.98
73024;BME280;61199;47.526;8.538;2023-03-14T03:12:32;95060.81;;;9.35;74.82
73024;BME280;61199;47.526;8.538;2023-03-14T03:14:59;95064.44;;;9.42;74.97
73024;BME280;61199;47.526;8.538;2023-03-14T03:17:25;95075.03;;;9.41;74.69
73024;BME280;61199;47.526;8.538;2023-03-14T03:19:52;95072.44;;;9.41;74.31
73024;BME280;61199;47.526;8.538;2023-03-14T03:22:18;95068.00;;;9.33;75.36
73024;BME280;61199;47.526;8.538;2023-03-14T03:24:45;95067.03;;;9.34;75.31
73024;BME280;61199;47.526;8.538;2023-03-14T03:27:11;95064.91;;;9.30;75.08
73024;BME280;61199;47.526;8.538;2023-03-14T03:29:37;95058.06;;;9.37;75.43
73024;BME280;61199;47.526;8.538;2023-03-14T03:32:04;95058.84;;;9.29;75.71
73024;BME280;61199;47.526;8.538;2023-03-14T03:34:30;95063.09;;;9.30;75.96
73024;BME280;61199;47.526;8.538;2023-03-14T03:36:57;95044.97;;;9.29;75.88
73024;BME280;61199;47.526;8.538;2023-03-14T03:39:24;95049.56;;;9.27;75.95
73024;BME280;61199;47.526;8.538;2023-03-14T03:41:50;95052.97;;;9.27;75.54
73024;BME280;61199;47.526;8.538;2023-03-14T03:44:16;95058.34;;;9.18;75.98
73024;BME280;61199;47.526;8.538;2023-03-14T03:46:43;95048.56;;;9.28;75.88
73024;BME280;61199;47.526;8.538;2023-03-14T03:49:09;95045.09;;;9.19;75.98
73024;BME280;61199;47.526;8.538;2023-03-14T03:51:35;95055.56;;;9.19;76.09
73024;BME280;61199;47.526;8.538;2023-03-14T03:54:02;95029.75;;;9.16;76.14
73024;BME280;61199;47.526;8.538;2023-03-14T03:56:29;95026.53;;;9.22;75.93
73024;BME280;61199;47.526;8.538;2023-03-14T03:58:55;95020.47;;;9.22;76.28
73024;BME280;61199;47.526;8.538;2023-03-14T04:01:22;95010.03;;;9.38;75.67
73024;BME280;61199;47.526;8.538;2023-03-14T04:03:48;95002.03;;;9.55;74.80
73024;BME280;61199;47.526;8.538;2023-03-14T04:06:15;95010.22;;;9.44;74.55
73024;BME280;61199;47.526;8.538;2023-03-14T04:08:42;95002.69;;;9.33;74.96
73024;BME280;61199;47.526;8.538;2023-03-14T04:11:09;94993.53;;;9.37;74.37
73024;BME280;61199;47.526;8.538;2023-03-14T04:13:35;94990.94;;;9.45;74.59
73024;BME280;61199;47.526;8.538;2023-03-14T04:16:02;94990.94;;;9.53;73.94
73024;BME280;61199;47.526;8.538;2023-03-14T04:18:29;94993.22;;;9.48;73.31
73024;BME280;61199;47.526;8.538;2023-03-14T04:20:57;94983.44;;;9.42;73.73
73024;BME280;61199;47.526;8.538;2023-03-14T04:23:24;94985.72;;;9.53;73.45
73024;BME280;61199;47.526;8.538;2023-03-14T04:25:51;94983.91;;;9.62;72.87
73024;BME280;61199;47.526;8.538;2023-03-14T04:28:18;94980.63;;;9.76;72.51
73024;BME280;61199;47.526;8.538;2023-03-14T04:30:44;94989.78;;;9.48;71.91
73024;BME280;61199;47.526;8.538;2023-03-14T04:33:11;94987.34;;;9.54;71.53
73024;BME280;61199;47.526;8.538;2023-03-14T04:35:38;94985.72;;;9.53;71.81
73024;BME280;61199;47.526;8.538;2023-03-14T04:38:05;94963.16;;;9.52;71.40
73024;BME280;61199;47.526;8.538;2023-03-14T04:40:31;94976.38;;;9.51;72.00
73024;BME280;61199;47.526;8.538;2023-03-14T04:42:58;94958.09;;;9.43;72.17
73024;BME280;61199;47.526;8.538;2023-03-14T04:45:24;94941.28;;;9.37;71.96
73024;BME280;61199;47.526;8.538;2023-03-14T04:47:50;94956.31;;;9.35;72.24
73024;BME280;61199;47.526;8.538;2023-03-14T04:50:17;94954.69;;;9.34;72.54
73024;BME280;61199;47.526;8.538;2023-03-14T04:52:43;94933.63;;;9.28;72.76
73024;BME280;61199;47.526;8.538;2023-03-14T04:55:09;94924.94;;;9.35;73.01
73024;BME280;61199;47.526;8.538;2023-03-14T04:57:36;94920.22;;;9.23;72.97
73024;BME280;61199;47.526;8.538;2023-03-14T05:00:03;94919.72;;;9.19;73.54
73024;BME280;61199;47.526;8.538;2023-03-14T05:02:33;94902.09;;;9.21;73.30
73024;BME280;61199;47.526;8.538;2023-03-14T05:04:59;94899.97;;;9.25;73.03
73024;BME280;61199;47.526;8.538;2023-03-14T05:07:26;94898.19;;;9.25;73.33
73024;BME280;61199;47.526;8.538;2023-03-14T05:09:52;94902.09;;;9.13;72.63
73024;BME280;61199;47.526;8.538;2023-03-14T05:12:20;94897.69;;;9.22;72.36
73024;BME280;61199;47.526;8.538;2023-03-14T05:14:46;94882.16;;;9.12;72.59
73024;BME280;61199;47.526;8.538;2023-03-14T05:17:13;94881.03;;;9.15;72.12
73024;BME280;61199;47.526;8.538;2023-03-14T05:19:41;94886.44;;;9.05;72.48
73024;BME280;61199;47.526;8.538;2023-03-14T05:22:07;94890.34;;;9.09;71.94
73024;BME280;61199;47.526;8.538;2023-03-14T05:24:33;94861.94;;;9.14;72.16
73024;BME280;61199;47.526;8.538;2023-03-14T05:27:00;94871.41;;;9.15;72.28
73024;BME280;61199;47.526;8.538;2023-03-14T05:29:26;94883.00;;;9.21;71.40
73024;BME280;61199;47.526;8.538;2023-03-14T05:31:52;94867.81;;;9.16;71.82
73024;BME280;61199;47.526;8.538;2023-03-14T05:34:19;94865.84;;;9.18;71.48
73024;BME280;61199;47.526;8.538;2023-03-14T05:36:45;94857.03;;;9.19;71.94
73024;BME280;61199;47.526;8.538;2023-03-14T05:39:12;94855.75;;;9.15;72.02
73024;BME280;61199;47.526;8.538;2023-03-14T05:41:38;94853.78;;;9.17;71.42
73024;BME280;61199;47.526;8.538;2023-03-14T05:44:05;94844.16;;;9.18;71.16
73024;BME280;61199;47.526;8.538;2023-03-14T05:46:31;94841.69;;;9.16;71.36
73024;BME280;61199;47.526;8.538;2023-03-14T05:48:58;94834.00;;;9.23;70.79
73024;BME280;61199;47.526;8.538;2023-03-14T05:51:25;94827.50;;;9.27;70.40
73024;BME280;61199;47.526;8.538;2023-03-14T05:53:51;94817.47;;;9.38;69.86
73024;BME280;61199;47.526;8.538;2023-03-14T05:56:18;94820.09;;;9.30;70.01
73024;BME280;61199;47.526;8.538;2023-03-14T05:58:44;94818.19;;;9.24;70.79
73024;BME280;61199;47.526;8.538;2023-03-14T06:01:11;94811.84;;;9.11;71.51
73024;BME280;61199;47.526;8.538;2023-03-14T06:03:37;94812.94;;;9.40;70.99
73024;BME280;61199;47.526;8.538;2023-03-14T06:06:04;94815.00;;;9.53;69.54
73024;BME280;61199;47.526;8.538;2023-03-14T06:08:30;94820.56;;;9.50;69.98
73024;BME280;61199;47.526;8.538;2023-03-14T06:10:57;94822.78;;;9.69;69.48
73024;BME280;61199;47.526;8.538;2023-03-14T06:13:24;94825.16;;;9.40;69.83
73024;BME280;61199;47.526;8.538;2023-03-14T06:15:50;94820.78;;;9.24;70.60
73024;BME280;61199;47.526;8.538;2023-03-14T06:18:17;94833.50;;;9.27;70.89
73024;BME280;61199;47.526;8.538;2023-03-14T06:20:43;94826.31;;;9.29;70.80
73024;BME280;61199;47.526;8.538;2023-03-14T06:23:10;94828.91;;;9.53;70.20
73024;BME280;61199;47.526;8.538;2023-03-14T06:25:36;94836.47;;;9.24;70.96
73024;BME280;61199;47.526;8.538;2023-03-14T06:28:03;94834.66;;;9.25;71.75
73024;BME280;61199;47.526;8.538;2023-03-14T06:30:30;94833.50;;;9.27;71.54
73024;BME280;61199;47.526;8.538;2023-03-14T06:32:56;94830.91;;;9.27;71.55
73024;BME280;61199;47.526;8.538;2023-03-14T06:35:23;94831.53;;;9.29;72.08
73024;BME280;61199;47.526;8.538;2023-03-14T06:37:49;94834.00;;;9.23;71.75
73024;BME280;61199;47.526;8.538;2023-03-14T06:40:16;94842.97;;;9.20;71.89
73024;BME280;61199;47.526;8.538;2023-03-14T06:42:44;94847.06;;;9.23;71.97
73024;BME280;61199;47.526;8.538;2023-03-14T06:45:11;94839.88;;;9.25;72.14
73024;BME280;61199;47.526;8.538;2023-03-14T06:47:38;94850.19;;;9.18;72.34
73024;BME280;61199;47.526;8.538;2023-03-14T06:50:08;94862.59;;;9.16;72.27
73024;BME280;61199;47.526;8.538;2023-03-14T06:52:35;94858.00;;;9.02;73.19
73024;BME280;61199;47.526;8.538;2023-03-14T06:55:02;94869.78;;;8.90;73.63
73024;BME280;61199;47.526;8.538;2023-03-14T06:57:28;94859.00;;;9.01;73.44
73024;BME280;61199;47.526;8.538;2023-03-14T06:59:55;94862.25;;;9.03;73.53
73024;BME280;61199;47.526;8.538;2023-03-14T07:02:22;94859.63;;;9.03;73.16
73024;BME280;61199;47.526;8.538;2023-03-14T07:05:07;94872.69;;;9.19;72.88
73024;BME280;61199;47.526;8.538;2023-03-14T07:07:33;94859.50;;;9.13;72.42
73024;BME280;61199;47.526;8.538;2023-03-14T07:09:59;94860.78;;;9.25;72.61
73024;BME280;61199;47.526;8.538;2023-03-14T07:12:26;94867.63;;;9.26;72.40
73024;BME280;61199;47.526;8.538;2023-03-14T07:14:52;94864.53;;;9.30;72.36
73024;BME280;61199;47.526;8.538;2023-03-14T07:17:18;94872.06;;;9.25;72.26
73024;BME280;61199;47.526;8.538;2023-03-14T07:19:45;94876.28;;;9.34;72.73
73024;BME280;61199;47.526;8.538;2023-03-14T07:22:12;94881.03;;;9.39;72.06
73024;BME280;61199;47.526;8.538;2023-03-14T07:24:38;94882.00;;;9.30;72.66
73024;BME280;61199;47.526;8.538;2023-03-14T07:27:04;94884.94;;;9.43;72.36
73024;BME280;61199;47.526;8.538;2023-03-14T07:29:32;94878.22;;;9.48;71.63
73024;BME280;61199;47.526;8.538;2023-03-14T07:31:58;94886.53;;;9.52;71.16
73024;BME280;61199;47.526;8.538;2023-03-14T07:34:25;94900.78;;;9.49;71.47
73024;BME280;61199;47.526;8.538;2023-03-14T07:36:51;94887.53;;;9.51;71.89
73024;BME280;61199;47.526;8.538;2023-03-14T07:39:17;94904.69;;;9.53;71.58
73024;BME280;61199;47.526;8.538;2023-03-14T07:41:44;94902.72;;;9.55;71.36
73024;BME280;61199;47.526;8.538;2023-03-14T07:44:10;94897.34;;;9.57;70.75
73024;BME280;61199;47.526;8.538;2023-03-14T07:46:36;94902.41;;;9.58;70.72
73024;BME280;61199;47.526;8.538;2023-03-14T07:49:03;94900.09;;;9.63;70.71
73024;BME280;61199;47.526;8.538;2023-03-14T07:51:29;94896.00;;;9.61;70.76
73024;BME280;61199;47.526;8.538;2023-03-14T07:53:55;94897.00;;;9.60;70.35
73024;BME280;61199;47.526;8.538;2023-03-14T07:56:22;94912.53;;;9.61;70.73
73024;BME280;61199;47.526;8.538;2023-03-14T07:58:48;94898.47;;;9.70;70.36
73024;BME280;61199;47.526;8.538;2023-03-14T08:01:15;94910.19;;;9.74;70.52
73024;BME280;61199;47.526;8.538;2023-03-14T08:03:41;94896.31;;;9.74;69.85
73024;BME280;61199;47.526;8.538;2023-03-14T08:06:07;94906.44;;;9.69;70.02
73024;BME280;61199;47.526;8.538;2023-03-14T08:08:34;94896.31;;;9.74;70.13
73024;BME280;61199;47.526;8.538;2023-03-14T08:11:05;94904.16;;;9.74;69.99
73024;BME280;61199;47.526;8.538;2023-03-14T08:13:32;94912.78;;;9.82;70.16
73024;BME280;61199;47.526;8.538;2023-03-14T08:15:58;94916.38;;;9.97;69.67
73024;BME280;61199;47.526;8.538;2023-03-14T08:18:25;94917.53;;;9.87;69.38
73024;BME280;61199;47.526;8.538;2023-03-14T08:20:51;94915.06;;;9.93;69.57
73024;BME280;61199;47.526;8.538;2023-03-14T08:23:18;94922.25;;;9.91;69.55
73024;BME280;61199;47.526;8.538;2023-03-14T08:25:44;94916.53;;;9.96;70.14
73024;BME280;61199;47.526;8.538;2023-03-14T08:28:10;94909.53;;;10.04;69.34
73024;BME280;61199;47.526;8.538;2023-03-14T08:30:37;94922.25;;;10.07;68.72
73024;BME280;61199;47.526;8.538;2023-03-14T08:33:03;94906.22;;;10.10;69.06
73024;BME280;61199;47.526;8.538;2023-03-14T08:35:30;94899.06;;;10.04;68.30
73024;BME280;61199;47.526;8.538;2023-03-14T08:37:56;94906.22;;;10.02;69.00
73024;BME280;61199;47.526;8.538;2023-03-14T08:40:23;94900.84;;;10.04;69.03
73024;BME280;61199;47.526;8.538;2023-03-14T08:42:49;94892.50;;;10.08;68.80
73024;BME280;61199;47.526;8.538;2023-03-14T08:45:16;94901.69;;;10.04;68.51
73024;BME280;61199;47.526;8.538;2023-03-14T08:47:44;94898.38;;;10.10;68.59
73024;BME280;61199;47.526;8.538;2023-03-14T08:50:11;94896.56;;;10.19;68.41
73024;BME280;61199;47.526;8.538;2023-03-14T08:52:41;94898.16;;;10.28;67.71
73024;BME280;61199;47.526;8.538;2023-03-14T08:55:09;94895.81;;;10.33;67.91
73024;BME280;61199;47.526;8.538;2023-03-14T08:57:35;94906.09;;;10.42;67.08
73024;BME280;61199;47.526;8.538;2023-03-14T09:00:04;94894.03;;;10.33;67.29
73024;BME280;61199;47.526;8.538;2023-03-14T09:02:40;94904.19;;;10.28;66.65
73024;BME280;61199;47.526;8.538;2023-03-14T09:05:07;94901.72;;;10.27;66.92
73024;BME280;61199;47.526;8.538;2023-03-14T09:07:34;94903.06;;;10.23;67.56
73024;BME280;61199;47.526;8.538;2023-03-14T09:10:00;94904.88;;;10.22;67.53
73024;BME280;61199;47.526;8.538;2023-03-14T09:12:27;94905.94;;;10.36;67.29
73024;BME280;61199;47.526;8.538;2023-03-14T09:14:53;94895.78;;;10.41;67.46
73024;BME280;61199;47.526;8.538;2023-03-14T09:17:20;94909.34;;;10.44;68.14
73024;BME280;61199;47.526;8.538;2023-03-14T09:19:46;94903.72;;;10.55;68.22
73024;BME280;61199;47.526;8.538;2023-03-14T09:22:13;94918.78;;;10.53;68.32
73024;BME280;61199;47.526;8.538;2023-03-14T09:24:40;94907.22;;;10.48;67.62
73024;BME280;61199;47.526;8.538;2023-03-14T09:27:07;94926.00;;;10.51;67.93
73024;BME280;61199;47.526;8.538;2023-03-14T09:29:33;94913.22;;;10.56;67.72
73024;BME280;61199;47.526;8.538;2023-03-14T09:32:03;94915.28;;;10.69;68.21
73024;BME280;61199;47.526;8.538;2023-03-14T09:34:29;94920.44;;;10.54;66.51
73024;BME280;61199;47.526;8.538;2023-03-14T09:36:56;94933.72;;;10.45;67.18
73024;BME280;61199;47.526;8.538;2023-03-14T09:39:23;94934.88;;;10.42;67.20
73024;BME280;61199;47.526;8.538;2023-03-14T09:41:51;94944.88;;;10.39;67.48
73024;BME280;61199;47.526;8.538;2023-03-14T09:44:32;94919.50;;;10.39;66.73
73024;BME280;61199;47.526;8.538;2023-03-14T09:47:06;94952.72;;;10.39;67.36
73024;BME280;61199;47.526;8.538;2023-03-14T09:49:36;94946.34;;;10.41;67.00
73024;BME280;61199;47.526;8.538;2023-03-14T09:52:11;94961.69;;;10.44;67.23
73024;BME280;61199;47.526;8.538;2023-03-14T09:54:43;94977.78;;;10.33;68.21
73024;BME280;61199;47.526;8.538;2023-03-14T09:57:18;94966.50;;;10.25;69.28
73024;BME280;61199;47.526;8.538;2023-03-14T09:59:47;94975.53;;;10.22;70.28
73024;BME280;61199;47.526;8.538;2023-03-14T10:04:45;94984.38;;;9.97;71.70
73024;BME280;61199;47.526;8.538;2023-03-14T10:07:14;95000.38;;;9.94;72.00
73024;BME280;61199;47.526;8.538;2023-03-14T10:09:47;94992.88;;;9.83;71.91
73024;BME280;61199;47.526;8.538;2023-03-14T10:12:14;95010.03;;;9.94;71.36
73024;BME280;61199;47.526;8.538;2023-03-14T10:14:51;95012.00;;;9.84;71.77
73024;BME280;61199;47.526;8.538;2023-03-14T10:17:19;95030.16;;;9.61;72.91
73024;BME280;61199;47.526;8.538;2023-03-14T10:19:57;95019.03;;;9.51;73.13
73024;BME280;61199;47.526;8.538;2023-03-14T10:22:27;95017.41;;;9.50;74.77
73024;BME280;61199;47.526;8.538;2023-03-14T10:25:06;95029.94;;;9.23;75.82
73024;BME280;61199;47.526;8.538;2023-03-14T10:27:35;95040.06;;;9.34;75.77
73024;BME280;61199;47.526;8.538;2023-03-14T10:30:07;95044.47;;;9.25;74.71
73024;BME280;61199;47.526;8.538;2023-03-14T10:32:52;95069.78;;;9.25;75.18
73024;BME280;61199;47.526;8.538;2023-03-14T10:35:21;95045.28;;;9.26;75.81
73024;BME280;61199;47.526;8.538;2023-03-14T10:37:59;95047.41;;;9.14;75.69
73024;BME280;61199;47.526;8.538;2023-03-14T10:40:30;95055.88;;;9.16;76.06
73024;BME280;61199;47.526;8.538;2023-03-14T10:43:00;95055.84;;;9.00;75.33
73024;BME280;61199;47.526;8.538;2023-03-14T10:45:36;95058.13;;;9.03;77.01
73024;BME280;61199;47.526;8.538;2023-03-14T10:48:30;95070.84;;;8.98;77.83
73024;BME280;61199;47.526;8.538;2023-03-14T10:51:18;95082.78;;;9.01;77.15
73024;BME280;61199;47.526;8.538;2023-03-14T10:56:20;95082.88;;;8.91;76.53
73024;BME280;61199;47.526;8.538;2023-03-14T10:58:52;95094.13;;;8.84;75.84
73024;BME280;61199;47.526;8.538;2023-03-14T11:01:27;95104.09;;;8.88;75.65
73024;BME280;61199;47.526;8.538;2023-03-14T11:07:05;95102.75;;;8.84;76.56
73024;BME280;61199;47.526;8.538;2023-03-14T11:10:02;95127.13;;;8.60;77.77
73024;BME280;61199;47.526;8.538;2023-03-14T11:12:57;95160.69;;;8.55;77.68
73024;BME280;61199;47.526;8.538;2023-03-14T11:18:29;95138.81;;;8.56;79.63
73024;BME280;61199;47.526;8.538;2023-03-14T11:21:08;95163.66;;;8.60;78.85
73024;BME280;61199;47.526;8.538;2023-03-14T11:23:55;95163.59;;;8.26;79.00
73024;BME280;61199;47.526;8.538;2023-03-14T11:26:30;95185.91;;;8.11;80.43
73024;BME280;61199;47.526;8.538;2023-03-14T11:31:55;95209.75;;;7.81;80.13
73024;BME280;61199;47.526;8.538;2023-03-14T11:37:06;95198.94;;;7.59;80.76
73024;BME280;61199;47.526;8.538;2023-03-14T11:39:41;95248.88;;;7.54;81.13
73024;BME280;61199;47.526;8.538;2023-03-14T11:42:12;95203.75;;;7.54;81.17
73024;BME280;61199;47.526;8.538;2023-03-14T11:44:40;95191.03;;;7.51;81.69
73024;BME280;61199;47.526;8.538;2023-03-14T11:47:20;95233.25;;;7.54;81.87
73024;BME280;61199;47.526;8.538;2023-03-14T11:50:05;95216.09;;;7.52;81.30
73024;BME280;61199;47.526;8.538;2023-03-14T11:53:02;95221.31;;;7.52;82.02
73024;BME280;61199;47.526;8.538;2023-03-14T11:55:42;95226.38;;;7.53;82.18
73024;BME280;61199;47.526;8.538;2023-03-14T11:58:29;95223.63;;;7.55;82.70
73024;BME280;61199;47.526;8.538;2023-03-14T12:01:02;95226.88;;;7.57;82.69
73024;BME280;61199;47.526;8.538;2023-03-14T12:04:02;95240.75;;;7.57;82.40
73024;BME280;61199;47.526;8.538;2023-03-14T12:06:49;95238.28;;;7.56;81.29
73024;BME280;61199;47.526;8.538;2023-03-14T12:09:18;95264.50;;;7.54;81.85
73024;BME280;61199;47.526;8.538;2023-03-14T12:12:01;95250.06;;;7.60;82.67
73024;BME280;61199;47.526;8.538;2023-03-14T12:14:32;95283.34;;;7.66;82.95
73024;BME280;61199;47.526;8.538;2023-03-14T12:17:20;95279.53;;;7.60;82.64
73024;BME280;61199;47.526;8.538;2023-03-14T12:19:53;95275.72;;;7.55;83.18
73024;BME280;61199;47.526;8.538;2023-03-14T12:22:28;95263.34;;;7.66;82.21
73024;BME280;61199;47.526;8.538;2023-03-14T12:33:29;95278.31;;;7.82;82.63
73024;BME280;61199;47.526;8.538;2023-03-14T12:36:01;95281.25;;;7.96;80.97
73024;BME280;61199;47.526;8.538;2023-03-14T12:38:52;95285.00;;;8.11;80.26
73024;BME280;61199;47.526;8.538;2023-03-14T12:41:46;95285.66;;;8.23;79.47
73024;BME280;61199;47.526;8.538;2023-03-14T12:44:41;95291.63;;;8.33;79.14
73024;BME280;61199;47.526;8.538;2023-03-14T12:49:49;95314.44;;;8.48;76.03
73024;BME280;61199;47.526;8.538;2023-03-14T12:52:37;95319.09;;;8.62;77.64
73024;BME280;61199;47.526;8.538;2023-03-14T13:00:20;95354.16;;;8.94;75.14
73024;BME280;61199;47.526;8.538;2023-03-14T13:02:48;95358.03;;;8.90;75.36
73024;BME280;61199;47.526;8.538;2023-03-14T13:05:22;95341.97;;;9.03;74.13
73024;BME280;61199;47.526;8.538;2023-03-14T13:10:30;95367.53;;;9.17;70.66
73024;BME280;61199;47.526;8.538;2023-03-14T13:15:44;95400.41;;;8.84;70.56
73024;BME280;61199;47.526;8.538;2023-03-14T13:18:29;95409.06;;;8.68;72.21
73024;BME280;61199;47.526;8.538;2023-03-14T13:21:03;95457.19;;;8.56;70.64
73024;BME280;61199;47.526;8.538;2023-03-14T13:23:34;95442.22;;;8.57;70.78
73024;BME280;61199;47.526;8.538;2023-03-14T13:26:03;95443.19;;;8.57;66.51
73024;BME280;61199;47.526;8.538;2023-03-14T13:28:34;95490.75;;;8.24;67.32
73024;BME280;61199;47.526;8.538;2023-03-14T13:31:02;95490.97;;;7.84;68.82
73024;BME280;61199;47.526;8.538;2023-03-14T13:33:31;95532.69;;;7.56;67.44
73024;BME280;61199;47.526;8.538;2023-03-14T13:36:02;95456.16;;;7.57;67.12
73024;BME280;61199;47.526;8.538;2023-03-14T13:38:32;95494.31;;;7.48;67.91
73024;BME280;61199;47.526;8.538;2023-03-14T13:41:00;95494.31;;;7.58;66.57
73024;BME280;61199;47.526;8.538;2023-03-14T13:43:32;95493.75;;;7.64;67.27
73024;BME280;61199;47.526;8.538;2023-03-14T13:46:10;95485.91;;;7.73;66.56
73024;BME280;61199;47.526;8.538;2023-03-14T13:48:45;95492.47;;;7.87;66.06
73024;BME280;61199;47.526;8.538;2023-03-14T13:51:13;95503.41;;;8.00;64.98
73024;BME280;61199;47.526;8.538;2023-03-14T13:53:50;95492.50;;;8.23;64.45
73024;BME280;61199;47.526;8.538;2023-03-14T13:56:19;95525.13;;;8.37;63.74
73024;BME280;61199;47.526;8.538;2023-03-14T13:58:47;95505.78;;;8.39;64.57
73024;BME280;61199;47.526;8.538;2023-03-14T14:01:18;95498.19;;;8.46;64.67
73024;BME280;61199;47.526;8.538;2023-03-14T14:03:49;95498.69;;;8.59;65.31
73024;BME280;61199;47.526;8.538;2023-03-14T14:06:39;95510.91;;;8.58;65.69
73024;BME280;61199;47.526;8.538;2023-03-14T14:09:16;95515.59;;;8.81;64.41